createdAt,value
2023-01-04T00:02:22.433Z,48.01
2023-01-04T00:04:49.139Z,47.91
2023-01-04T00:07:15.923Z,48.12
2023-01-04T00:09:42.495Z,47.99
2023-01-04T00:12:09.135Z,47.86
2023-01-04T00:14:35.675Z,47.74
2023-01-04T00:17:02.346Z,47.72
2023-01-04T00:19:28.981Z,47.99
2023-01-04T00:21:55.650Z,47.79
2023-01-04T00:24:22.260Z,47.94
2023-01-04T00:26:48.930Z,47.66
2023-01-04T00:29:15.505Z,47.62
2023-01-04T00:31:42.286Z,47.48
2023-01-04T00:34:09.733Z,47.65
2023-01-04T00:36:36.431Z,47.53
2023-01-04T00:39:10.085Z,47.50
2023-01-04T00:44:28.175Z,47.51
2023-01-04T00:46:54.770Z,47.55
2023-01-04T00:49:21.459Z,47.55
2023-01-04T00:51:48.086Z,47.46
2023-01-04T00:54:15.256Z,47.32
2023-01-04T00:56:42.040Z,47.35
2023-01-04T00:59:08.725Z,47.30
2023-01-04T01:01:35.549Z,47.03
2023-01-04T01:04:03.169Z,47.46
2023-01-04T01:06:30.148Z,47.37
2023-01-04T01:08:56.928Z,47.28
2023-01-04T01:11:23.549Z,47.15
2023-01-04T01:13:50.295Z,47.30
2023-01-04T01:16:27.312Z,47.23
2023-01-04T01:19:09.725Z,47.17
2023-01-04T01:21:38.045Z,47.16
2023-01-04T01:24:05.170Z,47.27
2023-01-04T01:26:31.904Z,47.25
2023-01-04T01:28:58.939Z,47.33
2023-01-04T01:31:26.572Z,47.37
2023-01-04T01:33:54.125Z,47.31
2023-01-04T01:36:21.356Z,47.30
2023-01-04T01:38:47.967Z,47.08
2023-01-04T01:41:24.754Z,47.05
2023-01-04T01:43:58.778Z,47.19
2023-01-04T01:46:25.441Z,47.20
2023-01-04T01:48:52.602Z,47.32
2023-01-04T01:51:19.283Z,47.29
2023-01-04T01:53:46.727Z,47.13
2023-01-04T01:56:13.379Z,47.28
2023-01-04T01:58:41.121Z,47.29
2023-01-04T02:01:08.144Z,47.21
2023-01-04T02:03:41.905Z,47.53
2023-01-04T02:06:09.376Z,47.47
2023-01-04T02:08:35.922Z,47.39
2023-01-04T02:11:02.527Z,47.48
2023-01-04T02:13:49.817Z,47.69
2023-01-04T02:16:16.519Z,47.64
2023-01-04T02:18:48.981Z,47.61
2023-01-04T02:21:16.789Z,47.57
2023-01-04T02:23:49.456Z,47.75
2023-01-04T02:26:36.982Z,47.84
2023-01-04T02:29:18.087Z,47.69
2023-01-04T02:32:23.280Z,47.75
2023-01-04T02:35:04.983Z,47.78
2023-01-04T02:37:31.647Z,48.05
2023-01-04T02:40:07.243Z,48.09
2023-01-04T02:42:57.579Z,48.10
2023-01-04T02:45:27.447Z,48.20
2023-01-04T02:48:12.660Z,48.45
2023-01-04T02:50:56.177Z,48.27
2023-01-04T02:53:23.441Z,48.55
2023-01-04T02:55:59.310Z,48.41
2023-01-04T02:58:31.878Z,48.65
2023-01-04T03:01:18.821Z,48.62
2023-01-04T03:04:07.348Z,48.79
2023-01-04T03:06:38.346Z,48.82
2023-01-04T03:09:11.133Z,48.62
2023-01-04T03:11:59.364Z,48.96
2023-01-04T03:14:31.434Z,49.02
2023-01-04T03:17:00.686Z,49.02
2023-01-04T03:19:45.928Z,48.92
2023-01-04T03:22:32.945Z,48.86
2023-01-04T03:25:18.310Z,48.98
2023-01-04T03:28:03.684Z,49.21
2023-01-04T03:30:49.162Z,49.27
2023-01-04T03:33:37.942Z,49.13
2023-01-04T03:36:12.939Z,49.30
2023-01-04T03:39:15.888Z,49.49
2023-01-04T03:42:01.496Z,49.45
2023-01-04T03:44:50.103Z,49.52
2023-01-04T03:47:41.337Z,49.76
2023-01-04T03:50:12.774Z,49.76
2023-01-04T03:52:39.631Z,49.52
2023-01-04T03:55:06.624Z,49.83
2023-01-04T03:57:33.224Z,49.98
2023-01-04T04:00:02.174Z,49.80
2023-01-04T04:02:31.323Z,50.04
2023-01-04T04:05:16.633Z,50.06
2023-01-04T04:08:02.153Z,49.78
2023-01-04T04:10:28.771Z,50.09
2023-01-04T04:12:55.342Z,50.02
2023-01-04T04:15:22.020Z,50.12
2023-01-04T04:17:48.550Z,50.15
2023-01-04T04:20:15.150Z,50.35
2023-01-04T04:22:41.774Z,50.24
2023-01-04T04:25:08.606Z,50.46
2023-01-04T04:27:35.120Z,50.52
2023-01-04T04:30:02.811Z,50.43
2023-01-04T04:32:29.359Z,50.32
2023-01-04T04:34:55.963Z,50.33
2023-01-04T04:37:22.564Z,50.43
2023-01-04T04:39:49.202Z,50.73
2023-01-04T04:42:15.738Z,50.52
2023-01-04T04:44:42.378Z,50.66
2023-01-04T04:47:08.941Z,50.54
2023-01-04T04:49:35.594Z,50.63
2023-01-04T04:52:02.180Z,50.61
2023-01-04T04:54:28.803Z,50.87
2023-01-04T04:56:55.356Z,50.66
2023-01-04T04:59:22.009Z,50.76
2023-01-04T05:01:48.728Z,51.00
2023-01-04T05:04:17.223Z,51.06
2023-01-04T05:06:44.385Z,51.00
2023-01-04T05:09:11.459Z,51.11
2023-01-04T05:11:56.807Z,51.00
2023-01-04T05:14:23.479Z,50.97
2023-01-04T05:16:50.107Z,50.94
2023-01-04T05:19:16.848Z,51.22
2023-01-04T05:21:43.417Z,51.04
2023-01-04T05:24:11.012Z,51.02
2023-01-04T05:26:37.717Z,51.13
2023-01-04T05:29:04.602Z,51.19
2023-01-04T05:31:31.229Z,51.25
2023-01-04T05:33:57.843Z,51.12
2023-01-04T05:36:24.340Z,51.24
2023-01-04T05:38:51.145Z,51.30
2023-01-04T05:41:36.617Z,51.10
2023-01-04T05:44:03.296Z,51.33
2023-01-04T05:46:31.364Z,51.26
2023-01-04T05:48:58.608Z,51.17
2023-01-04T05:51:25.266Z,51.47
2023-01-04T05:53:52.627Z,51.32
2023-01-04T05:56:19.259Z,51.18
2023-01-04T05:58:45.929Z,51.26
2023-01-04T06:01:12.785Z,51.40
2023-01-04T06:03:39.969Z,51.43
2023-01-04T06:06:06.694Z,51.32
2023-01-04T06:08:33.362Z,51.57
2023-01-04T06:10:59.956Z,51.53
2023-01-04T06:13:26.595Z,51.29
2023-01-04T06:15:53.157Z,51.48
2023-01-04T06:18:19.787Z,51.46
2023-01-04T06:20:46.329Z,51.48
2023-01-04T06:23:13.436Z,51.41
2023-01-04T06:25:40.014Z,51.54
2023-01-04T06:28:14.210Z,51.82
2023-01-04T06:30:41.598Z,52.07
2023-01-04T06:33:08.140Z,52.09
2023-01-04T06:35:36.079Z,52.27
2023-01-04T06:38:02.903Z,52.55
2023-01-04T06:40:29.527Z,52.65
2023-01-04T06:42:56.627Z,53.12
2023-01-04T06:45:23.135Z,53.21
2023-01-04T06:47:49.756Z,53.36
2023-01-04T06:50:16.414Z,53.40
2023-01-04T06:52:43.240Z,53.73
2023-01-04T06:55:09.934Z,53.94
2023-01-04T06:57:36.754Z,54.14
2023-01-04T07:00:04.248Z,53.82
2023-01-04T07:02:31.062Z,53.84
2023-01-04T07:04:57.778Z,53.85
2023-01-04T07:07:24.408Z,53.89
2023-01-04T07:09:50.936Z,53.97
2023-01-04T07:12:17.667Z,53.82
2023-01-04T07:14:44.372Z,53.84
2023-01-04T07:17:10.946Z,53.86
2023-01-04T07:19:37.567Z,53.66
2023-01-04T07:22:04.212Z,53.43
2023-01-04T07:24:30.999Z,53.71
2023-01-04T07:26:59.347Z,53.86
2023-01-04T07:29:25.880Z,53.32
2023-01-04T07:31:52.608Z,53.39
2023-01-04T07:34:19.909Z,53.25
2023-01-04T07:36:47.064Z,53.54
2023-01-04T07:39:13.968Z,53.66
2023-01-04T07:41:40.818Z,53.65
2023-01-04T07:44:08.681Z,53.66
2023-01-04T07:46:35.617Z,53.96
2023-01-04T07:49:02.370Z,54.07
2023-01-04T07:51:32.220Z,54.31
2023-01-04T07:54:00.885Z,54.63
2023-01-04T07:56:34.760Z,54.81
2023-01-04T07:59:01.960Z,54.97
2023-01-04T08:01:30.209Z,55.26
2023-01-04T08:03:58.196Z,55.34
2023-01-04T08:06:24.752Z,55.07
2023-01-04T08:08:51.340Z,55.14
2023-01-04T08:11:18.537Z,55.24
2023-01-04T08:13:45.407Z,55.12
2023-01-04T08:16:20.802Z,55.29
2023-01-04T08:18:47.882Z,55.40
2023-01-04T08:21:14.484Z,55.25
2023-01-04T08:23:41.090Z,55.25
2023-01-04T08:26:08.879Z,54.98
2023-01-04T08:28:35.700Z,55.01
2023-01-04T08:31:06.646Z,54.91
2023-01-04T08:33:33.689Z,54.81
2023-01-04T08:36:07.162Z,55.05
2023-01-04T08:39:02.597Z,54.86
2023-01-04T08:41:47.239Z,54.78
2023-01-04T08:44:07.135Z,54.83
2023-01-04T08:46:33.795Z,54.69
2023-01-04T08:49:00.429Z,54.45
2023-01-04T08:51:26.994Z,54.67
2023-01-04T08:53:53.586Z,54.44
2023-01-04T08:56:20.402Z,54.43
2023-01-04T08:58:46.995Z,54.43
2023-01-04T09:01:13.654Z,54.51
2023-01-04T09:03:41.921Z,54.64
2023-01-04T09:06:09.486Z,55.03
2023-01-04T09:08:36.665Z,54.78
2023-01-04T09:11:03.929Z,54.67
2023-01-04T09:13:30.544Z,54.48
2023-01-04T09:15:59.879Z,54.58
2023-01-04T09:18:33.733Z,54.45
2023-01-04T09:21:05.164Z,54.88
2023-01-04T09:23:31.855Z,54.95
2023-01-04T09:25:58.562Z,54.83
2023-01-04T09:28:25.264Z,54.70
2023-01-04T09:30:51.796Z,54.70
2023-01-04T09:33:47.702Z,54.74
2023-01-04T09:36:15.716Z,54.55
2023-01-04T09:38:42.439Z,54.42
2023-01-04T09:41:09.346Z,54.67
2023-01-04T09:43:43.116Z,54.77
2023-01-04T09:46:10.477Z,54.74
2023-01-04T09:48:44.528Z,55.00
2023-01-04T09:51:22.635Z,54.78
2023-01-04T09:53:53.115Z,54.71
2023-01-04T09:56:27.029Z,54.42
2023-01-04T09:58:53.855Z,54.57
2023-01-04T10:01:47.095Z,54.59
2023-01-04T10:04:33.206Z,54.55
2023-01-04T10:07:04.985Z,54.48
2023-01-04T10:09:32.092Z,54.70
2023-01-04T10:12:07.775Z,54.95
2023-01-04T10:14:43.388Z,54.93
2023-01-04T10:17:23.827Z,54.61
2023-01-04T10:23:19.941Z,54.57
2023-01-04T10:25:55.095Z,54.78
2023-01-04T10:28:24.704Z,54.93
2023-01-04T10:30:51.271Z,54.49
2023-01-04T10:33:36.688Z,54.66
2023-01-04T10:36:03.391Z,54.53
2023-01-04T10:38:33.623Z,54.43
2023-01-04T10:41:06.112Z,54.85
2023-01-04T10:44:11.990Z,54.74
2023-01-04T10:46:47.965Z,55.01
2023-01-04T10:49:19.480Z,54.88
2023-01-04T10:51:58.008Z,55.10
2023-01-04T10:54:27.729Z,55.46
2023-01-04T10:57:05.089Z,55.46
2023-01-04T10:59:37.920Z,55.51
2023-01-04T11:02:28.445Z,55.56
2023-01-04T11:05:21.050Z,56.10
2023-01-04T11:07:56.069Z,55.86
2023-01-04T11:10:22.736Z,55.67
2023-01-04T11:12:49.296Z,55.32
2023-01-04T11:15:16.084Z,55.42
2023-01-04T11:17:43.139Z,55.26
2023-01-04T11:20:10.023Z,55.54
2023-01-04T11:22:41.131Z,55.47
2023-01-04T11:25:35.196Z,55.40
2023-01-04T11:28:00.315Z,55.38
2023-01-04T11:30:32.970Z,55.38
2023-01-04T11:33:01.114Z,55.49
2023-01-04T11:35:44.788Z,55.55
2023-01-04T11:38:14.963Z,55.40
2023-01-04T11:40:41.879Z,55.23
2023-01-04T11:43:12.742Z,55.06
2023-01-04T11:45:40.012Z,55.12
2023-01-04T11:48:10.937Z,55.06
2023-01-04T11:50:48.047Z,55.45
2023-01-04T11:53:30.141Z,55.06
2023-01-04T11:56:13.835Z,54.84
2023-01-04T11:58:40.798Z,54.94
2023-01-04T12:01:18.618Z,54.75
2023-01-04T12:03:45.233Z,54.98
2023-01-04T12:06:19.313Z,54.73
2023-01-04T12:08:46.111Z,54.61
2023-01-04T12:11:17.625Z,54.70
2023-01-04T12:13:45.782Z,54.87
2023-01-04T12:16:23.036Z,55.11
2023-01-04T12:18:49.727Z,54.81
2023-01-04T12:21:20.440Z,54.95
2023-01-04T12:23:47.279Z,54.97
2023-01-04T12:26:13.927Z,55.27
2023-01-04T12:28:40.575Z,54.95
2023-01-04T12:31:19.796Z,55.23
2023-01-04T12:33:50.046Z,55.07
2023-01-04T12:36:17.661Z,55.21
2023-01-04T12:39:03.027Z,55.30
2023-01-04T12:41:35.798Z,54.95
2023-01-04T12:44:03.027Z,54.90
2023-01-04T12:46:48.369Z,54.70
2023-01-04T12:49:30.300Z,55.11
2023-01-04T12:55:03.832Z,54.86
2023-01-04T12:57:37.582Z,54.95
2023-01-04T13:00:08.660Z,54.87
2023-01-04T13:02:48.200Z,54.98
2023-01-04T13:08:09.091Z,54.50
2023-01-04T13:10:36.675Z,54.94
2023-01-04T13:13:03.197Z,55.07
2023-01-04T13:15:32.567Z,55.17
2023-01-04T13:17:59.168Z,55.47
2023-01-04T13:20:26.680Z,55.32
2023-01-04T13:22:53.808Z,55.24
2023-01-04T13:25:20.619Z,54.89
2023-01-04T13:27:57.581Z,54.98
2023-01-04T13:30:37.236Z,55.06
2023-01-04T13:33:27.125Z,54.75
2023-01-04T13:36:09.755Z,54.74
2023-01-04T13:38:36.383Z,55.28
2023-01-04T13:41:03.022Z,55.19
2023-01-04T13:43:32.677Z,55.28
2023-01-04T13:46:06.189Z,54.99
2023-01-04T13:48:36.850Z,55.16
2023-01-04T13:51:17.274Z,54.96
2023-01-04T13:54:00.632Z,54.84
2023-01-04T13:56:28.404Z,55.21
2023-01-04T13:58:54.961Z,55.35
2023-01-04T14:01:27.811Z,55.29
2023-01-04T14:04:01.511Z,55.50
2023-01-04T14:06:28.267Z,55.11
2023-01-04T14:09:02.314Z,55.16
2023-01-04T14:11:49.108Z,55.02
2023-01-04T14:14:20.605Z,55.17
2023-01-04T14:16:47.663Z,54.86
2023-01-04T14:19:27.329Z,55.47
2023-01-04T14:21:54.009Z,55.25
2023-01-04T14:27:36.496Z,55.45
2023-01-04T14:30:18.621Z,55.40
2023-01-04T14:32:57.257Z,55.34
2023-01-04T14:35:24.214Z,55.36
2023-01-04T14:37:50.906Z,55.34
2023-01-04T14:40:27.636Z,55.70
2023-01-04T14:42:54.694Z,55.64
2023-01-04T14:45:21.246Z,55.67
2023-01-04T14:47:47.960Z,55.60
2023-01-04T14:50:14.782Z,55.67
2023-01-04T14:52:41.416Z,55.74
2023-01-04T14:55:08.204Z,56.11
2023-01-04T14:57:38.169Z,55.99
2023-01-04T15:00:05.191Z,56.00
2023-01-04T15:02:33.934Z,56.06
2023-01-04T15:05:00.858Z,56.00
2023-01-04T15:07:35.451Z,55.72
2023-01-04T15:10:03.261Z,56.17
2023-01-04T15:12:29.900Z,56.00
2023-01-04T15:14:56.516Z,56.00
2023-01-04T15:17:23.012Z,55.97
2023-01-04T15:19:49.811Z,56.34
2023-01-04T15:22:16.455Z,56.56
2023-01-04T15:24:43.086Z,56.45
2023-01-04T15:27:09.722Z,56.75
2023-01-04T15:29:36.363Z,56.68
2023-01-04T15:32:02.937Z,56.84
2023-01-04T15:34:29.625Z,56.70
2023-01-04T15:36:56.609Z,56.54
2023-01-04T15:39:23.232Z,56.67
2023-01-04T15:42:08.282Z,56.54
2023-01-04T15:44:34.970Z,56.19
2023-01-04T15:47:01.555Z,56.22
2023-01-04T15:49:31.306Z,56.38
2023-01-04T15:51:57.873Z,56.86
2023-01-04T15:54:25.336Z,56.79
2023-01-04T15:56:51.910Z,56.47
2023-01-04T15:59:18.543Z,56.51
2023-01-04T16:01:45.246Z,56.90
2023-01-04T16:04:12.422Z,57.34
2023-01-04T16:06:39.400Z,57.41
2023-01-04T16:09:06.192Z,57.69
2023-01-04T16:11:32.788Z,57.79
2023-01-04T16:13:59.347Z,58.11
2023-01-04T16:16:30.258Z,57.75
2023-01-04T16:18:57.366Z,57.66
2023-01-04T16:21:24.940Z,57.75
2023-01-04T16:24:06.998Z,58.11
2023-01-04T16:26:36.216Z,57.87
2023-01-04T16:29:03.014Z,57.86
2023-01-04T16:31:33.174Z,57.73
2023-01-04T16:33:59.887Z,57.93
2023-01-04T16:36:26.459Z,57.62
2023-01-04T16:38:53.180Z,57.75
2023-01-04T16:41:25.047Z,58.18
2023-01-04T16:43:55.494Z,57.97
2023-01-04T16:46:28.939Z,58.25
2023-01-04T16:48:56.607Z,58.04
2023-01-04T16:51:23.783Z,58.72
2023-01-04T16:53:50.784Z,58.72
2023-01-04T16:56:19.593Z,58.43
2023-01-04T16:58:48.113Z,58.05
2023-01-04T17:01:20.207Z,57.94
2023-01-04T17:03:47.907Z,58.04
2023-01-04T17:06:17.178Z,57.63
2023-01-04T17:08:44.896Z,57.52
2023-01-04T17:14:01.505Z,57.70
2023-01-04T17:16:34.431Z,57.30
2023-01-04T17:19:01.772Z,57.51
2023-01-04T17:21:34.577Z,57.45
2023-01-04T17:24:02.772Z,57.33
2023-01-04T17:26:31.130Z,57.40
2023-01-04T17:28:59.828Z,57.22
2023-01-04T17:31:29.286Z,57.09
2023-01-04T17:33:56.802Z,56.65
2023-01-04T17:36:23.631Z,56.62
2023-01-04T17:38:50.713Z,56.69
2023-01-04T17:41:22.475Z,56.78
2023-01-04T17:43:51.229Z,56.47
2023-01-04T17:46:23.140Z,56.44
2023-01-04T17:49:20.699Z,56.56
2023-01-04T17:51:40.104Z,56.29
2023-01-04T17:54:07.306Z,56.28
2023-01-04T17:56:34.321Z,56.35
2023-01-04T17:59:02.856Z,56.56
2023-01-04T18:01:30.777Z,56.14
2023-01-04T18:03:58.890Z,56.48
2023-01-04T18:06:34.589Z,56.57
2023-01-04T18:09:02.814Z,56.06
2023-01-04T18:11:29.588Z,55.98
2023-01-04T18:13:56.361Z,56.26
2023-01-04T18:16:28.647Z,55.92
2023-01-04T18:18:57.559Z,55.83
2023-01-04T18:21:30.820Z,56.15
2023-01-04T18:29:33.121Z,55.73
2023-01-04T18:31:59.950Z,55.97
2023-01-04T18:34:27.287Z,56.02
2023-01-04T18:36:54.365Z,55.92
2023-01-04T18:39:21.389Z,55.91
2023-01-04T18:41:48.124Z,56.01
2023-01-04T18:44:34.453Z,55.60
2023-01-04T18:47:03.515Z,55.48
2023-01-04T18:49:30.381Z,55.82
2023-01-04T18:51:57.294Z,55.83
2023-01-04T18:54:24.133Z,55.87
2023-01-04T18:56:56.971Z,55.39
2023-01-04T18:59:28.405Z,55.76
2023-01-04T19:02:00.676Z,55.32
2023-01-04T19:04:32.054Z,55.46
2023-01-04T19:06:58.798Z,55.66
2023-01-04T19:09:25.476Z,55.46
2023-01-04T19:11:52.269Z,55.16
2023-01-04T19:14:19.276Z,55.64
2023-01-04T19:16:46.122Z,55.17
2023-01-04T19:19:12.962Z,55.16
2023-01-04T19:21:41.835Z,55.46
2023-01-04T19:24:09.462Z,55.18
2023-01-04T19:26:41.986Z,55.21
2023-01-04T19:29:14.182Z,55.12
2023-01-04T19:31:44.015Z,55.17
2023-01-04T19:34:11.947Z,55.09
2023-01-04T19:36:39.052Z,55.41
2023-01-04T19:39:09.270Z,55.40
2023-01-04T19:41:38.179Z,55.20
2023-01-04T19:44:07.194Z,54.96
2023-01-04T19:46:34.193Z,55.26
2023-01-04T19:49:00.976Z,55.24
2023-01-04T19:51:28.061Z,54.96
2023-01-04T19:53:55.736Z,55.34
2023-01-04T19:56:22.666Z,54.97
2023-01-04T19:58:49.656Z,55.40
2023-01-04T20:01:18.206Z,55.18
2023-01-04T20:03:45.412Z,54.92
2023-01-04T20:06:13.376Z,54.87
2023-01-04T20:08:40.943Z,55.25
2023-01-04T20:11:08.464Z,55.18
2023-01-04T20:13:38.989Z,55.18
2023-01-04T20:16:06.321Z,55.00
2023-01-04T20:18:34.572Z,55.02
2023-01-04T20:21:02.168Z,54.96
2023-01-04T20:23:28.899Z,55.16
2023-01-04T20:25:55.795Z,54.74
2023-01-04T20:28:23.972Z,54.96
2023-01-04T20:31:12.076Z,55.02
2023-01-04T20:33:42.409Z,54.81
2023-01-04T20:36:13.013Z,54.97
2023-01-04T20:38:43.456Z,55.19
2023-01-04T20:41:12.749Z,54.71
2023-01-04T20:43:39.568Z,55.14
2023-01-04T20:46:12.747Z,54.92
2023-01-04T20:48:40.642Z,54.67
2023-01-04T20:51:14.142Z,54.84
2023-01-04T20:53:40.951Z,54.75
2023-01-04T20:56:11.651Z,55.04
2023-01-04T20:58:38.735Z,54.73
2023-01-04T21:01:06.625Z,54.72
2023-01-04T21:03:34.607Z,55.11
2023-01-04T21:06:07.719Z,54.68
2023-01-04T21:08:36.048Z,54.66
2023-01-04T21:11:03.072Z,54.94
2023-01-04T21:13:30.026Z,54.70
2023-01-04T21:15:57.451Z,54.92
2023-01-04T21:18:26.289Z,54.81
2023-01-04T21:20:53.318Z,54.83
2023-01-04T21:23:26.327Z,54.95
2023-01-04T21:25:53.547Z,54.86
2023-01-04T21:28:22.050Z,54.94
2023-01-04T21:30:49.713Z,54.56
2023-01-04T21:33:17.205Z,54.61
2023-01-04T21:35:44.095Z,54.80
2023-01-04T21:38:11.465Z,54.63
2023-01-04T21:40:40.689Z,54.97
2023-01-04T21:43:08.121Z,54.50
2023-01-04T21:45:39.513Z,54.82
2023-01-04T21:48:06.464Z,54.73
2023-01-04T21:50:33.253Z,54.45
2023-01-04T21:53:00.212Z,54.53
2023-01-04T21:55:32.419Z,54.50
2023-01-04T21:58:01.193Z,54.54
2023-01-04T22:00:28.024Z,54.74
2023-01-04T22:02:54.915Z,54.34
2023-01-04T22:05:21.687Z,54.75
2023-01-04T22:07:48.487Z,54.54
2023-01-04T22:10:15.275Z,54.46
2023-01-04T22:12:53.899Z,54.74
2023-01-04T22:15:30.671Z,54.77
2023-01-04T22:17:58.648Z,54.63
2023-01-04T22:20:25.326Z,54.45
2023-01-04T22:22:52.108Z,54.63
2023-01-04T22:25:18.829Z,54.35
2023-01-04T22:27:49.632Z,54.74
2023-01-04T22:30:16.665Z,54.79
2023-01-04T22:32:43.384Z,54.57
2023-01-04T22:35:10.366Z,54.33
2023-01-04T22:37:37.161Z,54.74
2023-01-04T22:40:04.225Z,54.55
2023-01-04T22:42:31.037Z,54.77
2023-01-04T22:44:57.791Z,54.39
2023-01-04T22:47:24.715Z,54.73
2023-01-04T22:49:51.467Z,54.62
2023-01-04T22:52:18.145Z,54.40
2023-01-04T22:54:44.920Z,54.43
2023-01-04T22:57:11.644Z,54.59
2023-01-04T22:59:38.371Z,54.83
2023-01-04T23:02:05.142Z,54.59
2023-01-04T23:04:32.030Z,54.32
2023-01-04T23:06:58.964Z,54.69
2023-01-04T23:09:25.897Z,54.66
2023-01-04T23:11:52.660Z,54.47
2023-01-04T23:14:19.436Z,54.50
2023-01-04T23:16:46.427Z,54.48
2023-01-04T23:19:13.858Z,54.78
2023-01-04T23:21:41.432Z,54.77
2023-01-04T23:24:12.871Z,54.39
2023-01-04T23:26:39.695Z,54.73
2023-01-04T23:29:06.333Z,54.78
2023-01-04T23:31:34.244Z,54.71
2023-01-04T23:34:03.408Z,54.35
2023-01-04T23:36:37.008Z,54.90
2023-01-04T23:39:06.957Z,54.78
2023-01-04T23:41:46.509Z,54.39
2023-01-04T23:44:13.685Z,54.36
2023-01-04T23:46:40.453Z,54.49
2023-01-04T23:49:07.373Z,54.42
2023-01-04T23:51:34.085Z,54.29
2023-01-04T23:54:00.828Z,54.46
2023-01-04T23:56:27.506Z,54.47
2023-01-04T23:58:54.287Z,54.58
